sensor_id;sensor_type;location;lat;lon;timestamp;P1;durP1;ratioP1;P2;durP2;ratioP2
20814;SDS011;10568;48.176;16.316;2023-04-08T00:01:44;17.50;;;10.50;;
20814;SDS011;10568;48.176;16.316;2023-04-08T00:04:11;16.70;;;11.13;;
20814;SDS011;10568;48.176;16.316;2023-04-08T00:06:38;17.60;;;10.60;;
20814;SDS011;10568;48.176;16.316;2023-04-08T00:09:04;18.70;;;11.00;;
20814;SDS011;10568;48.176;16.316;2023-04-08T00:11:30;15.50;;;9.63;;
20814;SDS011;10568;48.176;16.316;2023-04-08T00:13:56;15.47;;;10.27;;
20814;SDS011;10568;48.176;16.316;2023-04-08T00:16:22;16.33;;;10.60;;
20814;SDS011;10568;48.176;16.316;2023-04-08T00:18:47;15.17;;;9.03;;
20814;SDS011;10568;48.176;16.316;2023-04-08T00:21:13;11.47;;;7.57;;
20814;SDS011;10568;48.176;16.316;2023-04-08T00:23:42;11.13;;;6.20;;
20814;SDS011;10568;48.176;16.316;2023-04-08T00:26:08;10.37;;;5.73;;
20814;SDS011;10568;48.176;16.316;2023-04-08T00:28:33;9.63;;;5.83;;
20814;SDS011;10568;48.176;16.316;2023-04-08T00:30:59;6.70;;;4.63;;
20814;SDS011;10568;48.176;16.316;2023-04-08T00:33:25;7.33;;;4.20;;
20814;SDS011;10568;48.176;16.316;2023-04-08T00:35:51;9.53;;;5.43;;
20814;SDS011;10568;48.176;16.316;2023-04-08T00:38:16;6.63;;;4.17;;
20814;SDS011;10568;48.176;16.316;2023-04-08T00:40:42;5.90;;;3.70;;
20814;SDS011;10568;48.176;16.316;2023-04-08T00:43:08;6.60;;;4.30;;
20814;SDS011;10568;48.176;16.316;2023-04-08T00:45:34;5.03;;;3.10;;
20814;SDS011;10568;48.176;16.316;2023-04-08T00:48:00;5.73;;;3.60;;
20814;SDS011;10568;48.176;16.316;2023-04-08T00:50:27;3.87;;;3.10;;
20814;SDS011;10568;48.176;16.316;2023-04-08T00:52:53;6.13;;;3.73;;
20814;SDS011;10568;48.176;16.316;2023-04-08T00:55:19;5.73;;;3.47;;
20814;SDS011;10568;48.176;16.316;2023-04-08T00:57:45;5.90;;;3.17;;
20814;SDS011;10568;48.176;16.316;2023-04-08T01:00:11;4.80;;;3.07;;
20814;SDS011;10568;48.176;16.316;2023-04-08T01:02:42;4.67;;;3.17;;
20814;SDS011;10568;48.176;16.316;2023-04-08T01:05:22;6.53;;;3.63;;
20814;SDS011;10568;48.176;16.316;2023-04-08T01:07:58;3.47;;;2.93;;
20814;SDS011;10568;48.176;16.316;2023-04-08T01:10:30;4.80;;;2.80;;
20814;SDS011;10568;48.176;16.316;2023-04-08T01:13:04;4.17;;;2.90;;
20814;SDS011;10568;48.176;16.316;2023-04-08T01:15:35;4.27;;;3.00;;
20814;SDS011;10568;48.176;16.316;2023-04-08T01:18:04;4.17;;;2.97;;
20814;SDS011;10568;48.176;16.316;2023-04-08T01:20:40;4.00;;;2.57;;
20814;SDS011;10568;48.176;16.316;2023-04-08T01:23:09;4.57;;;2.67;;
20814;SDS011;10568;48.176;16.316;2023-04-08T01:26:03;3.60;;;2.67;;
20814;SDS011;10568;48.176;16.316;2023-04-08T01:28:29;3.60;;;2.70;;
20814;SDS011;10568;48.176;16.316;2023-04-08T01:30:56;3.63;;;2.67;;
20814;SDS011;10568;48.176;16.316;2023-04-08T01:33:24;2.57;;;2.23;;
20814;SDS011;10568;48.176;16.316;2023-04-08T01:35:52;4.17;;;2.40;;
20814;SDS011;10568;48.176;16.316;2023-04-08T01:38:20;2.70;;;2.03;;
20814;SDS011;10568;48.176;16.316;2023-04-08T01:40:50;4.77;;;2.57;;
20814;SDS011;10568;48.176;16.316;2023-04-08T01:43:16;2.90;;;2.30;;
20814;SDS011;10568;48.176;16.316;2023-04-08T01:45:44;2.57;;;2.03;;
20814;SDS011;10568;48.176;16.316;2023-04-08T01:48:13;2.63;;;1.83;;
20814;SDS011;10568;48.176;16.316;2023-04-08T01:50:40;2.53;;;1.53;;
20814;SDS011;10568;48.176;16.316;2023-04-08T01:53:07;3.13;;;2.13;;
20814;SDS011;10568;48.176;16.316;2023-04-08T01:55:35;4.60;;;2.17;;
20814;SDS011;10568;48.176;16.316;2023-04-08T01:58:03;2.47;;;1.93;;
20814;SDS011;10568;48.176;16.316;2023-04-08T02:00:31;2.03;;;1.77;;
20814;SDS011;10568;48.176;16.316;2023-04-08T02:02:59;3.63;;;2.10;;
20814;SDS011;10568;48.176;16.316;2023-04-08T02:05:28;2.57;;;1.80;;
20814;SDS011;10568;48.176;16.316;2023-04-08T02:07:54;3.43;;;2.10;;
20814;SDS011;10568;48.176;16.316;2023-04-08T02:10:20;2.37;;;1.90;;
20814;SDS011;10568;48.176;16.316;2023-04-08T02:12:46;3.17;;;2.03;;
20814;SDS011;10568;48.176;16.316;2023-04-08T02:15:12;2.63;;;1.77;;
20814;SDS011;10568;48.176;16.316;2023-04-08T02:17:45;3.10;;;2.20;;
20814;SDS011;10568;48.176;16.316;2023-04-08T02:20:22;2.80;;;1.77;;
20814;SDS011;10568;48.176;16.316;2023-04-08T02:25:29;3.33;;;1.73;;
20814;SDS011;10568;48.176;16.316;2023-04-08T02:27:58;3.33;;;1.97;;
20814;SDS011;10568;48.176;16.316;2023-04-08T02:30:27;1.97;;;1.43;;
20814;SDS011;10568;48.176;16.316;2023-04-08T02:32:55;2.20;;;1.33;;
20814;SDS011;10568;48.176;16.316;2023-04-08T02:35:27;2.17;;;1.87;;
20814;SDS011;10568;48.176;16.316;2023-04-08T02:37:53;2.17;;;1.50;;
20814;SDS011;10568;48.176;16.316;2023-04-08T02:40:25;1.97;;;1.53;;
20814;SDS011;10568;48.176;16.316;2023-04-08T02:42:53;1.80;;;1.60;;
20814;SDS011;10568;48.176;16.316;2023-04-08T02:45:20;2.57;;;1.33;;
20814;SDS011;10568;48.176;16.316;2023-04-08T02:47:46;2.27;;;1.40;;
20814;SDS011;10568;48.176;16.316;2023-04-08T02:50:12;4.13;;;1.53;;
20814;SDS011;10568;48.176;16.316;2023-04-08T02:52:38;1.33;;;1.20;;
20814;SDS011;10568;48.176;16.316;2023-04-08T02:55:04;1.50;;;1.10;;
20814;SDS011;10568;48.176;16.316;2023-04-08T02:57:33;1.30;;;1.00;;
20814;SDS011;10568;48.176;16.316;2023-04-08T03:00:01;1.57;;;1.23;;
20814;SDS011;10568;48.176;16.316;2023-04-08T03:02:29;1.70;;;1.10;;
20814;SDS011;10568;48.176;16.316;2023-04-08T03:04:55;1.90;;;1.47;;
20814;SDS011;10568;48.176;16.316;2023-04-08T03:07:21;1.20;;;1.10;;
20814;SDS011;10568;48.176;16.316;2023-04-08T03:09:46;2.20;;;1.50;;
20814;SDS011;10568;48.176;16.316;2023-04-08T03:12:12;1.63;;;1.33;;
20814;SDS011;10568;48.176;16.316;2023-04-08T03:14:38;1.17;;;1.07;;
20814;SDS011;10568;48.176;16.316;2023-04-08T03:17:04;1.90;;;1.43;;
20814;SDS011;10568;48.176;16.316;2023-04-08T03:19:29;1.40;;;1.30;;
20814;SDS011;10568;48.176;16.316;2023-04-08T03:21:55;2.00;;;1.03;;
20814;SDS011;10568;48.176;16.316;2023-04-08T03:24:21;1.53;;;1.10;;
20814;SDS011;10568;48.176;16.316;2023-04-08T03:26:47;1.47;;;1.00;;
20814;SDS011;10568;48.176;16.316;2023-04-08T03:29:12;1.60;;;1.20;;
20814;SDS011;10568;48.176;16.316;2023-04-08T03:31:38;1.20;;;1.10;;
20814;SDS011;10568;48.176;16.316;2023-04-08T03:34:04;1.30;;;1.20;;
20814;SDS011;10568;48.176;16.316;2023-04-08T03:36:30;1.77;;;1.30;;
20814;SDS011;10568;48.176;16.316;2023-04-08T03:39:05;1.60;;;1.43;;
20814;SDS011;10568;48.176;16.316;2023-04-08T03:41:31;1.20;;;1.10;;
20814;SDS011;10568;48.176;16.316;2023-04-08T03:43:57;1.47;;;1.00;;
20814;SDS011;10568;48.176;16.316;2023-04-08T03:46:22;1.63;;;0.97;;
20814;SDS011;10568;48.176;16.316;2023-04-08T03:48:48;1.10;;;1.00;;
20814;SDS011;10568;48.176;16.316;2023-04-08T03:51:14;1.10;;;1.00;;
20814;SDS011;10568;48.176;16.316;2023-04-08T03:53:58;1.77;;;1.47;;
20814;SDS011;10568;48.176;16.316;2023-04-08T03:56:24;1.13;;;1.07;;
20814;SDS011;10568;48.176;16.316;2023-04-08T03:58:49;1.40;;;1.20;;
20814;SDS011;10568;48.176;16.316;2023-04-08T04:01:15;1.27;;;1.13;;
20814;SDS011;10568;48.176;16.316;2023-04-08T04:03:41;1.33;;;0.93;;
20814;SDS011;10568;48.176;16.316;2023-04-08T04:06:06;1.00;;;0.90;;
20814;SDS011;10568;48.176;16.316;2023-04-08T04:08:32;1.50;;;1.20;;
20814;SDS011;10568;48.176;16.316;2023-04-08T04:10:58;2.07;;;1.33;;
20814;SDS011;10568;48.176;16.316;2023-04-08T04:13:24;1.30;;;1.20;;
20814;SDS011;10568;48.176;16.316;2023-04-08T04:15:50;1.03;;;0.93;;
20814;SDS011;10568;48.176;16.316;2023-04-08T04:18:16;1.37;;;1.10;;
20814;SDS011;10568;48.176;16.316;2023-04-08T04:20:41;0.87;;;0.87;;
20814;SDS011;10568;48.176;16.316;2023-04-08T04:23:07;1.93;;;1.20;;
20814;SDS011;10568;48.176;16.316;2023-04-08T04:25:34;1.27;;;1.17;;
20814;SDS011;10568;48.176;16.316;2023-04-08T04:27:59;2.10;;;1.40;;
20814;SDS011;10568;48.176;16.316;2023-04-08T04:33:26;1.20;;;1.10;;
20814;SDS011;10568;48.176;16.316;2023-04-08T04:35:52;1.27;;;1.13;;
20814;SDS011;10568;48.176;16.316;2023-04-08T04:38:17;1.50;;;1.40;;
20814;SDS011;10568;48.176;16.316;2023-04-08T04:40:43;1.33;;;1.23;;
20814;SDS011;10568;48.176;16.316;2023-04-08T04:43:09;1.17;;;1.03;;
20814;SDS011;10568;48.176;16.316;2023-04-08T04:45:35;1.13;;;1.03;;
20814;SDS011;10568;48.176;16.316;2023-04-08T04:48:01;1.80;;;1.30;;
20814;SDS011;10568;48.176;16.316;2023-04-08T04:53:49;1.40;;;1.30;;
20814;SDS011;10568;48.176;16.316;2023-04-08T04:56:15;1.50;;;1.20;;
20814;SDS011;10568;48.176;16.316;2023-04-08T04:58:41;1.33;;;1.20;;
20814;SDS011;10568;48.176;16.316;2023-04-08T05:01:07;3.03;;;1.80;;
20814;SDS011;10568;48.176;16.316;2023-04-08T05:03:32;1.33;;;1.23;;
20814;SDS011;10568;48.176;16.316;2023-04-08T05:05:58;2.10;;;1.40;;
20814;SDS011;10568;48.176;16.316;2023-04-08T05:08:24;1.40;;;1.30;;
20814;SDS011;10568;48.176;16.316;2023-04-08T05:10:50;1.60;;;1.50;;
20814;SDS011;10568;48.176;16.316;2023-04-08T05:13:16;2.30;;;1.67;;
20814;SDS011;10568;48.176;16.316;2023-04-08T05:15:42;1.40;;;1.30;;
20814;SDS011;10568;48.176;16.316;2023-04-08T05:18:11;2.50;;;1.80;;
20814;SDS011;10568;48.176;16.316;2023-04-08T05:20:37;2.37;;;1.70;;
20814;SDS011;10568;48.176;16.316;2023-04-08T05:23:03;1.90;;;1.20;;
20814;SDS011;10568;48.176;16.316;2023-04-08T05:25:29;1.90;;;1.50;;
20814;SDS011;10568;48.176;16.316;2023-04-08T05:27:55;1.60;;;1.50;;
20814;SDS011;10568;48.176;16.316;2023-04-08T05:30:21;2.77;;;1.20;;
20814;SDS011;10568;48.176;16.316;2023-04-08T05:32:47;1.97;;;1.63;;
20814;SDS011;10568;48.176;16.316;2023-04-08T05:35:13;1.97;;;1.50;;
20814;SDS011;10568;48.176;16.316;2023-04-08T05:37:38;1.30;;;1.20;;
20814;SDS011;10568;48.176;16.316;2023-04-08T05:40:04;1.87;;;1.57;;
20814;SDS011;10568;48.176;16.316;2023-04-08T05:42:31;1.70;;;1.47;;
20814;SDS011;10568;48.176;16.316;2023-04-08T05:44:57;2.80;;;1.70;;
20814;SDS011;10568;48.176;16.316;2023-04-08T05:47:23;1.87;;;1.40;;
20814;SDS011;10568;48.176;16.316;2023-04-08T05:49:48;1.60;;;1.40;;
20814;SDS011;10568;48.176;16.316;2023-04-08T05:52:14;1.60;;;1.43;;
20814;SDS011;10568;48.176;16.316;2023-04-08T05:54:43;2.13;;;1.60;;
20814;SDS011;10568;48.176;16.316;2023-04-08T05:57:09;1.90;;;1.50;;
20814;SDS011;10568;48.176;16.316;2023-04-08T05:59:35;2.10;;;1.40;;
20814;SDS011;10568;48.176;16.316;2023-04-08T06:02:01;1.67;;;1.47;;
20814;SDS011;10568;48.176;16.316;2023-04-08T06:04:27;2.30;;;1.77;;
20814;SDS011;10568;48.176;16.316;2023-04-08T06:06:54;1.57;;;1.30;;
20814;SDS011;10568;48.176;16.316;2023-04-08T06:09:24;1.20;;;1.10;;
20814;SDS011;10568;48.176;16.316;2023-04-08T06:11:50;2.90;;;1.83;;
20814;SDS011;10568;48.176;16.316;2023-04-08T06:14:16;1.53;;;1.40;;
20814;SDS011;10568;48.176;16.316;2023-04-08T06:16:42;1.93;;;1.53;;
20814;SDS011;10568;48.176;16.316;2023-04-08T06:19:07;2.67;;;1.50;;
20814;SDS011;10568;48.176;16.316;2023-04-08T06:21:33;1.87;;;1.70;;
20814;SDS011;10568;48.176;16.316;2023-04-08T06:23:59;1.37;;;1.20;;
20814;SDS011;10568;48.176;16.316;2023-04-08T06:26:25;2.63;;;1.80;;
20814;SDS011;10568;48.176;16.316;2023-04-08T06:28:54;1.50;;;1.37;;
20814;SDS011;10568;48.176;16.316;2023-04-08T06:31:21;1.73;;;1.43;;
20814;SDS011;10568;48.176;16.316;2023-04-08T06:33:48;2.07;;;1.57;;
20814;SDS011;10568;48.176;16.316;2023-04-08T06:36:14;2.23;;;1.83;;
20814;SDS011;10568;48.176;16.316;2023-04-08T06:38:40;1.80;;;1.33;;
20814;SDS011;10568;48.176;16.316;2023-04-08T06:41:06;2.40;;;1.50;;
20814;SDS011;10568;48.176;16.316;2023-04-08T06:43:32;1.90;;;1.53;;
20814;SDS011;10568;48.176;16.316;2023-04-08T06:45:59;2.00;;;1.80;;
20814;SDS011;10568;48.176;16.316;2023-04-08T06:48:25;2.17;;;1.97;;
20814;SDS011;10568;48.176;16.316;2023-04-08T06:50:57;2.87;;;1.93;;
20814;SDS011;10568;48.176;16.316;2023-04-08T06:53:26;3.37;;;1.90;;
20814;SDS011;10568;48.176;16.316;2023-04-08T06:55:56;3.70;;;1.77;;
20814;SDS011;10568;48.176;16.316;2023-04-08T06:58:22;2.03;;;1.67;;
20814;SDS011;10568;48.176;16.316;2023-04-08T07:00:48;2.37;;;1.93;;
20814;SDS011;10568;48.176;16.316;2023-04-08T07:03:17;1.93;;;1.67;;
20814;SDS011;10568;48.176;16.316;2023-04-08T07:05:43;1.70;;;1.47;;
20814;SDS011;10568;48.176;16.316;2023-04-08T07:08:08;2.00;;;1.50;;
20814;SDS011;10568;48.176;16.316;2023-04-08T07:10:34;2.20;;;1.50;;
20814;SDS011;10568;48.176;16.316;2023-04-08T07:13:00;1.60;;;1.50;;
20814;SDS011;10568;48.176;16.316;2023-04-08T07:15:26;1.93;;;1.40;;
20814;SDS011;10568;48.176;16.316;2023-04-08T07:17:52;2.33;;;1.47;;
20814;SDS011;10568;48.176;16.316;2023-04-08T07:20:20;1.77;;;1.27;;
20814;SDS011;10568;48.176;16.316;2023-04-08T07:22:47;1.80;;;1.50;;
20814;SDS011;10568;48.176;16.316;2023-04-08T07:25:12;2.07;;;1.40;;
20814;SDS011;10568;48.176;16.316;2023-04-08T07:27:38;1.73;;;1.20;;
20814;SDS011;10568;48.176;16.316;2023-04-08T07:30:04;1.90;;;1.60;;
20814;SDS011;10568;48.176;16.316;2023-04-08T07:32:31;1.63;;;1.30;;
20814;SDS011;10568;48.176;16.316;2023-04-08T07:34:58;2.20;;;1.70;;
20814;SDS011;10568;48.176;16.316;2023-04-08T07:37:27;1.30;;;1.20;;
20814;SDS011;10568;48.176;16.316;2023-04-08T07:39:52;2.60;;;1.73;;
20814;SDS011;10568;48.176;16.316;2023-04-08T07:42:18;1.80;;;1.40;;
20814;SDS011;10568;48.176;16.316;2023-04-08T07:44:44;2.13;;;1.50;;
20814;SDS011;10568;48.176;16.316;2023-04-08T07:47:10;2.50;;;1.53;;
20814;SDS011;10568;48.176;16.316;2023-04-08T07:49:37;2.00;;;1.33;;
20814;SDS011;10568;48.176;16.316;2023-04-08T07:52:04;2.20;;;1.77;;
20814;SDS011;10568;48.176;16.316;2023-04-08T07:54:33;2.70;;;1.70;;
20814;SDS011;10568;48.176;16.316;2023-04-08T07:56:59;1.63;;;1.30;;
20814;SDS011;10568;48.176;16.316;2023-04-08T07:59:26;1.80;;;1.60;;
20814;SDS011;10568;48.176;16.316;2023-04-08T08:01:52;2.87;;;1.80;;
20814;SDS011;10568;48.176;16.316;2023-04-08T08:04:18;2.67;;;1.73;;
20814;SDS011;10568;48.176;16.316;2023-04-08T08:06:44;2.03;;;1.83;;
20814;SDS011;10568;48.176;16.316;2023-04-08T08:09:10;2.30;;;1.57;;
20814;SDS011;10568;48.176;16.316;2023-04-08T08:11:36;2.30;;;1.70;;
20814;SDS011;10568;48.176;16.316;2023-04-08T08:14:01;2.47;;;1.80;;
20814;SDS011;10568;48.176;16.316;2023-04-08T08:16:28;2.23;;;1.73;;
20814;SDS011;10568;48.176;16.316;2023-04-08T08:18:55;2.50;;;1.97;;
20814;SDS011;10568;48.176;16.316;2023-04-08T08:21:21;3.40;;;2.50;;
20814;SDS011;10568;48.176;16.316;2023-04-08T08:23:47;4.37;;;1.83;;
20814;SDS011;10568;48.176;16.316;2023-04-08T08:26:13;2.57;;;1.67;;
20814;SDS011;10568;48.176;16.316;2023-04-08T08:28:40;4.07;;;1.97;;
20814;SDS011;10568;48.176;16.316;2023-04-08T08:31:05;3.13;;;2.00;;
20814;SDS011;10568;48.176;16.316;2023-04-08T08:33:31;3.70;;;2.10;;
20814;SDS011;10568;48.176;16.316;2023-04-08T08:35:57;3.27;;;2.50;;
20814;SDS011;10568;48.176;16.316;2023-04-08T08:38:24;4.00;;;2.50;;
20814;SDS011;10568;48.176;16.316;2023-04-08T08:40:56;3.30;;;2.30;;
20814;SDS011;10568;48.176;16.316;2023-04-08T08:43:26;3.50;;;2.77;;
20814;SDS011;10568;48.176;16.316;2023-04-08T08:45:53;3.33;;;1.90;;
20814;SDS011;10568;48.176;16.316;2023-04-08T08:48:18;3.40;;;2.33;;
20814;SDS011;10568;48.176;16.316;2023-04-08T08:50:44;4.70;;;2.47;;
20814;SDS011;10568;48.176;16.316;2023-04-08T08:53:10;5.47;;;2.47;;
20814;SDS011;10568;48.176;16.316;2023-04-08T08:55:37;4.57;;;2.40;;
20814;SDS011;10568;48.176;16.316;2023-04-08T08:58:03;3.60;;;2.20;;
20814;SDS011;10568;48.176;16.316;2023-04-08T09:00:35;4.00;;;2.80;;
20814;SDS011;10568;48.176;16.316;2023-04-08T09:03:21;4.07;;;2.80;;
20814;SDS011;10568;48.176;16.316;2023-04-08T09:08:49;4.10;;;2.37;;
20814;SDS011;10568;48.176;16.316;2023-04-08T09:11:15;3.43;;;2.30;;
20814;SDS011;10568;48.176;16.316;2023-04-08T09:13:43;5.67;;;3.10;;
20814;SDS011;10568;48.176;16.316;2023-04-08T09:16:10;3.83;;;2.47;;
20814;SDS011;10568;48.176;16.316;2023-04-08T09:18:39;4.37;;;2.63;;
20814;SDS011;10568;48.176;16.316;2023-04-08T09:21:08;4.33;;;2.60;;
20814;SDS011;10568;48.176;16.316;2023-04-08T09:23:44;5.20;;;2.87;;
20814;SDS011;10568;48.176;16.316;2023-04-08T09:26:18;4.13;;;2.40;;
20814;SDS011;10568;48.176;16.316;2023-04-08T09:29:04;4.53;;;2.63;;
20814;SDS011;10568;48.176;16.316;2023-04-08T09:31:38;3.57;;;2.33;;
20814;SDS011;10568;48.176;16.316;2023-04-08T09:34:08;3.50;;;2.40;;
20814;SDS011;10568;48.176;16.316;2023-04-08T09:36:39;4.03;;;2.80;;
20814;SDS011;10568;48.176;16.316;2023-04-08T09:39:05;4.50;;;2.47;;
20814;SDS011;10568;48.176;16.316;2023-04-08T09:41:34;4.33;;;3.13;;
20814;SDS011;10568;48.176;16.316;2023-04-08T09:44:02;3.03;;;2.57;;
20814;SDS011;10568;48.176;16.316;2023-04-08T09:54:40;4.50;;;2.97;;
20814;SDS011;10568;48.176;16.316;2023-04-08T09:57:42;4.70;;;2.73;;
20814;SDS011;10568;48.176;16.316;2023-04-08T10:00:16;3.37;;;2.53;;
20814;SDS011;10568;48.176;16.316;2023-04-08T10:02:45;3.80;;;2.90;;
20814;SDS011;10568;48.176;16.316;2023-04-08T10:05:21;5.23;;;3.43;;
20814;SDS011;10568;48.176;16.316;2023-04-08T10:07:50;5.50;;;3.50;;
20814;SDS011;10568;48.176;16.316;2023-04-08T10:10:16;4.13;;;2.80;;
20814;SDS011;10568;48.176;16.316;2023-04-08T10:12:44;5.93;;;3.50;;
20814;SDS011;10568;48.176;16.316;2023-04-08T10:17:49;5.00;;;2.70;;
20814;SDS011;10568;48.176;16.316;2023-04-08T10:23:00;4.90;;;3.37;;
20814;SDS011;10568;48.176;16.316;2023-04-08T10:27:56;4.47;;;2.83;;
20814;SDS011;10568;48.176;16.316;2023-04-08T10:32:55;5.00;;;3.33;;
20814;SDS011;10568;48.176;16.316;2023-04-08T10:35:28;3.97;;;2.67;;
20814;SDS011;10568;48.176;16.316;2023-04-08T10:37:55;3.87;;;2.70;;
20814;SDS011;10568;48.176;16.316;2023-04-08T10:40:22;6.43;;;4.03;;
20814;SDS011;10568;48.176;16.316;2023-04-08T10:42:55;3.43;;;2.30;;
20814;SDS011;10568;48.176;16.316;2023-04-08T10:45:21;4.50;;;3.13;;
20814;SDS011;10568;48.176;16.316;2023-04-08T10:51:09;4.53;;;2.80;;
20814;SDS011;10568;48.176;16.316;2023-04-08T10:53:38;4.07;;;2.80;;
20814;SDS011;10568;48.176;16.316;2023-04-08T10:58:52;4.97;;;2.83;;
20814;SDS011;10568;48.176;16.316;2023-04-08T11:01:23;6.67;;;3.60;;
20814;SDS011;10568;48.176;16.316;2023-04-08T11:03:50;6.77;;;3.77;;
20814;SDS011;10568;48.176;16.316;2023-04-08T11:06:16;5.50;;;3.10;;
20814;SDS011;10568;48.176;16.316;2023-04-08T11:08:42;7.13;;;3.97;;
20814;SDS011;10568;48.176;16.316;2023-04-08T11:11:11;6.20;;;3.47;;
20814;SDS011;10568;48.176;16.316;2023-04-08T11:13:40;7.80;;;3.93;;
20814;SDS011;10568;48.176;16.316;2023-04-08T11:16:08;6.37;;;3.53;;
20814;SDS011;10568;48.176;16.316;2023-04-08T11:18:34;6.90;;;3.27;;
20814;SDS011;10568;48.176;16.316;2023-04-08T11:21:03;5.90;;;3.17;;
20814;SDS011;10568;48.176;16.316;2023-04-08T11:23:32;7.27;;;3.50;;
20814;SDS011;10568;48.176;16.316;2023-04-08T11:25:58;6.60;;;3.77;;
20814;SDS011;10568;48.176;16.316;2023-04-08T11:28:24;7.43;;;3.63;;
20814;SDS011;10568;48.176;16.316;2023-04-08T11:30:50;6.60;;;3.53;;
20814;SDS011;10568;48.176;16.316;2023-04-08T11:33:17;5.67;;;3.53;;
20814;SDS011;10568;48.176;16.316;2023-04-08T11:35:43;7.67;;;4.07;;
20814;SDS011;10568;48.176;16.316;2023-04-08T11:38:10;6.60;;;4.03;;
20814;SDS011;10568;48.176;16.316;2023-04-08T11:40:36;10.03;;;4.73;;
20814;SDS011;10568;48.176;16.316;2023-04-08T11:43:09;11.63;;;4.83;;
20814;SDS011;10568;48.176;16.316;2023-04-08T11:45:39;6.43;;;3.90;;
20814;SDS011;10568;48.176;16.316;2023-04-08T11:48:09;8.20;;;4.40;;
20814;SDS011;10568;48.176;16.316;2023-04-08T11:50:39;6.80;;;4.10;;
20814;SDS011;10568;48.176;16.316;2023-04-08T11:53:19;9.03;;;4.40;;
20814;SDS011;10568;48.176;16.316;2023-04-08T11:55:46;9.23;;;4.83;;
20814;SDS011;10568;48.176;16.316;2023-04-08T11:58:12;7.23;;;3.80;;
20814;SDS011;10568;48.176;16.316;2023-04-08T12:00:39;7.47;;;4.57;;
20814;SDS011;10568;48.176;16.316;2023-04-08T12:03:05;8.00;;;4.50;;
20814;SDS011;10568;48.176;16.316;2023-04-08T12:05:32;10.30;;;5.03;;
20814;SDS011;10568;48.176;16.316;2023-04-08T12:07:58;7.60;;;4.13;;
20814;SDS011;10568;48.176;16.316;2023-04-08T12:10:23;7.27;;;4.33;;
20814;SDS011;10568;48.176;16.316;2023-04-08T12:12:49;9.73;;;4.57;;
20814;SDS011;10568;48.176;16.316;2023-04-08T12:15:15;7.23;;;4.50;;
20814;SDS011;10568;48.176;16.316;2023-04-08T12:17:41;7.20;;;4.47;;
20814;SDS011;10568;48.176;16.316;2023-04-08T12:20:11;10.37;;;4.47;;
20814;SDS011;10568;48.176;16.316;2023-04-08T12:22:37;6.63;;;4.57;;
20814;SDS011;10568;48.176;16.316;2023-04-08T12:25:03;9.30;;;5.10;;
20814;SDS011;10568;48.176;16.316;2023-04-08T12:27:30;11.17;;;4.90;;
20814;SDS011;10568;48.176;16.316;2023-04-08T12:29:57;8.33;;;4.60;;
20814;SDS011;10568;48.176;16.316;2023-04-08T12:32:24;6.67;;;4.13;;
20814;SDS011;10568;48.176;16.316;2023-04-08T12:34:50;7.13;;;4.47;;
20814;SDS011;10568;48.176;16.316;2023-04-08T12:37:16;7.87;;;4.63;;
20814;SDS011;10568;48.176;16.316;2023-04-08T12:39:42;7.97;;;4.63;;
20814;SDS011;10568;48.176;16.316;2023-04-08T12:42:26;8.03;;;4.40;;
20814;SDS011;10568;48.176;16.316;2023-04-08T12:44:52;6.63;;;3.83;;
20814;SDS011;10568;48.176;16.316;2023-04-08T12:47:17;11.70;;;5.53;;
20814;SDS011;10568;48.176;16.316;2023-04-08T12:49:43;8.17;;;4.17;;
20814;SDS011;10568;48.176;16.316;2023-04-08T12:52:09;7.10;;;4.43;;
20814;SDS011;10568;48.176;16.316;2023-04-08T12:54:35;8.13;;;4.53;;
20814;SDS011;10568;48.176;16.316;2023-04-08T12:57:00;9.37;;;5.37;;
20814;SDS011;10568;48.176;16.316;2023-04-08T12:59:27;9.07;;;4.20;;
20814;SDS011;10568;48.176;16.316;2023-04-08T13:01:52;7.30;;;4.23;;
20814;SDS011;10568;48.176;16.316;2023-04-08T13:04:18;8.97;;;4.30;;
20814;SDS011;10568;48.176;16.316;2023-04-08T13:06:44;6.97;;;4.53;;
20814;SDS011;10568;48.176;16.316;2023-04-08T13:09:10;9.63;;;4.97;;
20814;SDS011;10568;48.176;16.316;2023-04-08T13:11:36;7.43;;;4.60;;
20814;SDS011;10568;48.176;16.316;2023-04-08T13:14:01;7.37;;;4.57;;
20814;SDS011;10568;48.176;16.316;2023-04-08T13:16:27;7.57;;;4.63;;
20814;SDS011;10568;48.176;16.316;2023-04-08T13:18:53;7.93;;;4.00;;
20814;SDS011;10568;48.176;16.316;2023-04-08T13:21:19;5.90;;;4.67;;
20814;SDS011;10568;48.176;16.316;2023-04-08T13:23:45;7.57;;;4.00;;
20814;SDS011;10568;48.176;16.316;2023-04-08T13:26:11;6.23;;;4.07;;
20814;SDS011;10568;48.176;16.316;2023-04-08T13:28:37;6.30;;;3.93;;
20814;SDS011;10568;48.176;16.316;2023-04-08T13:31:02;9.37;;;4.03;;
20814;SDS011;10568;48.176;16.316;2023-04-08T13:33:28;8.03;;;3.90;;
20814;SDS011;10568;48.176;16.316;2023-04-08T13:35:54;4.80;;;3.70;;
20814;SDS011;10568;48.176;16.316;2023-04-08T13:38:20;7.50;;;3.63;;
20814;SDS011;10568;48.176;16.316;2023-04-08T13:40:46;6.73;;;4.00;;
20814;SDS011;10568;48.176;16.316;2023-04-08T13:43:12;6.77;;;3.87;;
20814;SDS011;10568;48.176;16.316;2023-04-08T13:45:38;6.50;;;3.90;;
20814;SDS011;10568;48.176;16.316;2023-04-08T13:48:04;6.40;;;4.40;;
20814;SDS011;10568;48.176;16.316;2023-04-08T13:50:30;7.43;;;4.20;;
20814;SDS011;10568;48.176;16.316;2023-04-08T13:52:56;7.57;;;4.40;;
20814;SDS011;10568;48.176;16.316;2023-04-08T13:55:22;7.03;;;4.00;;
20814;SDS011;10568;48.176;16.316;2023-04-08T13:57:48;6.43;;;4.20;;
20814;SDS011;10568;48.176;16.316;2023-04-08T14:00:13;6.93;;;3.87;;
20814;SDS011;10568;48.176;16.316;2023-04-08T14:02:39;7.90;;;4.30;;
20814;SDS011;10568;48.176;16.316;2023-04-08T14:05:06;5.77;;;3.70;;
20814;SDS011;10568;48.176;16.316;2023-04-08T14:07:32;7.33;;;4.10;;
20814;SDS011;10568;48.176;16.316;2023-04-08T14:09:58;5.90;;;3.57;;
20814;SDS011;10568;48.176;16.316;2023-04-08T14:12:23;5.97;;;4.00;;
20814;SDS011;10568;48.176;16.316;2023-04-08T14:14:49;6.03;;;4.30;;
20814;SDS011;10568;48.176;16.316;2023-04-08T14:17:15;5.63;;;3.80;;
20814;SDS011;10568;48.176;16.316;2023-04-08T14:19:41;5.17;;;3.63;;
20814;SDS011;10568;48.176;16.316;2023-04-08T14:22:06;4.43;;;3.07;;
20814;SDS011;10568;48.176;16.316;2023-04-08T14:24:32;6.77;;;3.57;;
20814;SDS011;10568;48.176;16.316;2023-04-08T14:26:58;4.60;;;3.50;;
20814;SDS011;10568;48.176;16.316;2023-04-08T14:29:24;4.63;;;3.33;;
20814;SDS011;10568;48.176;16.316;2023-04-08T14:31:50;4.17;;;3.47;;
20814;SDS011;10568;48.176;16.316;2023-04-08T14:34:15;5.27;;;3.50;;
20814;SDS011;10568;48.176;16.316;2023-04-08T14:36:41;6.43;;;3.50;;
20814;SDS011;10568;48.176;16.316;2023-04-08T14:39:07;5.63;;;3.80;;
20814;SDS011;10568;48.176;16.316;2023-04-08T14:41:33;4.80;;;3.10;;
20814;SDS011;10568;48.176;16.316;2023-04-08T14:43:58;4.10;;;3.07;;
20814;SDS011;10568;48.176;16.316;2023-04-08T14:46:25;4.70;;;3.13;;
20814;SDS011;10568;48.176;16.316;2023-04-08T14:48:51;3.90;;;3.07;;
20814;SDS011;10568;48.176;16.316;2023-04-08T14:51:16;4.00;;;2.80;;
20814;SDS011;10568;48.176;16.316;2023-04-08T14:53:42;4.43;;;2.87;;
20814;SDS011;10568;48.176;16.316;2023-04-08T14:56:08;2.67;;;2.13;;
20814;SDS011;10568;48.176;16.316;2023-04-08T14:58:34;4.30;;;2.83;;
20814;SDS011;10568;48.176;16.316;2023-04-08T15:01:00;4.10;;;2.80;;
20814;SDS011;10568;48.176;16.316;2023-04-08T15:03:25;4.07;;;2.57;;
20814;SDS011;10568;48.176;16.316;2023-04-08T15:05:51;3.63;;;2.67;;
20814;SDS011;10568;48.176;16.316;2023-04-08T15:08:17;2.77;;;2.33;;
20814;SDS011;10568;48.176;16.316;2023-04-08T15:10:43;3.97;;;3.20;;